Sandy City
, Sandy
Last Weather Update:10/30/2011 11:00:00 PM
Date
ETo
ETc
Rain
Irrigation
Req
Temp
Max
Temp
Min
Temp
Avg
Avg RH
Avg Wind
Avg Solar
inches
inches
incehs
inches
F
F
F
%
%
watts/m2
9/1/2011 0.20" 0.14" 0.00" 0.14" 82.1° 55.1° 70.6° 45.2% 0.4 MPH 319.4w/m2
9/2/2011 0.19" 0.13" 0.00" 0.13" 80.4° 52.6° 66.9° 49.1% 0.2 MPH 314.6w/m2
9/3/2011 0.19" 0.13" 0.00" 0.13" 84.1° 50.5° 67.9° 37.9% 0.2 MPH 319.5w/m2
9/4/2011 0.20" 0.14" 0.00" 0.14" 88.8° 53.4° 70.4° 39.7% 0.2 MPH 314.8w/m2
9/5/2011 0.11" 0.08" 0.00" 0.08" 82.8° 56.6° 69.8° 45.8% 0.3 MPH 178.9w/m2
9/6/2011 0.14" 0.09" 0.00" 0.09" 79.3° 58.0° 68.7° 55.9% 0.3 MPH 250.8w/m2
9/7/2011 0.18" 0.12" 0.00" 0.12" 82.1° 54.7° 68.5° 52.1% 0.3 MPH 294.2w/m2
9/8/2011 0.18" 0.12" 0.00" 0.12" 83.1° 56.0° 69.5° 48.3% 0.3 MPH 293.8w/m2
9/9/2011 0.15" 0.10" 0.00" 0.10" 84.1° 56.5° 69.1° 50.2% 0.3 MPH 241.2w/m2
9/10/2011 0.18" 0.12" 0.00" 0.12" 82.0° 56.4° 68.8° 49.9% 0.3 MPH 288.7w/m2
9/11/2011 0.11" 0.08" 0.00" 0.08" 79.2° 57.3° 66.7° 54.9% 0.6 MPH 190.2w/m2
9/12/2011 0.06" 0.04" 0.00" 0.04" 74.7° 58.9° 63.3° 63.9% 0.7 MPH 189.7w/m2
9/13/2011 0.09" 0.06" 0.00" 0.06" 80.7° 62.0° 73.9° 34.3% 0.4 MPH 321.9w/m2
9/14/2011 0.16" 0.10" 0.00" 0.10" 81.4° 54.6° 67.0° 52.7% 0.4 MPH 264.8w/m2
9/15/2011 0.16" 0.10" 0.00" 0.10" 79.3° 56.6° 67.7° 53.9% 0.4 MPH 272.1w/m2
9/16/2011 0.07" 0.05" 0.21" -0.12" 72.0° 55.7° 63.3° 68.5% 0.6 MPH 120.5w/m2
9/17/2011 0.13" 0.08" 0.07" 0.03" 72.2° 52.5° 61.6° 72.0% 0.3 MPH 228.1w/m2
9/18/2011 0.16" 0.10" 0.00" 0.10" 77.0° 48.7° 62.1° 60.2% 0.2 MPH 275.1w/m2
9/19/2011 0.16" 0.10" 0.00" 0.10" 82.1° 49.9° 65.2° 53.5% 0.3 MPH 271.6w/m2
9/20/2011 0.16" 0.10" 0.00" 0.10" 78.2° 51.2° 64.7° 49.9% 0.2 MPH 270.9w/m2
9/21/2011 0.16" 0.10" 0.00" 0.10" 79.7° 50.0° 64.6° 51.6% 0.2 MPH 270.9w/m2
9/22/2011 0.16" 0.10" 0.00" 0.10" 82.6° 48.8° 64.3° 45.0% 0.2 MPH 271.2w/m2
9/23/2011 0.16" 0.10" 0.00" 0.10" 85.0° 49.4° 65.8° 41.9% 0.2 MPH 261.9w/m2
9/24/2011 0.17" 0.11" 0.00" 0.11" 86.3° 49.3° 66.6° 40.9% 0.2 MPH 283.7w/m2
9/25/2011 0.16" 0.10" 0.00" 0.10" 86.5° 51.6° 68.0° 42.2% 0.3 MPH 260.5w/m2
9/26/2011 0.15" 0.09" 0.00" 0.09" 79.6° 59.1° 68.6° 46.5% 0.3 MPH 255.1w/m2
9/27/2011 0.15" 0.09" 0.00" 0.09" 85.4° 50.9° 67.1° 51.5% 0.2 MPH 244.4w/m2
9/28/2011 0.15" 0.09" 0.00" 0.09" 86.4° 53.9° 68.5° 48.3% 0.2 MPH 243.5w/m2
9/29/2011 0.15" 0.09" 0.00" 0.09" 86.1° 51.7° 68.4° 46.1% 0.2 MPH 250.0w/m2
9/30/2011 0.15" 0.09" 0.00" 0.09" 89.3° 53.6° 70.8° 41.3% 0.3 MPH 238.0w/m2
Totals: 4.53" 2.94" 0.28" 2.72" 89.3° 48.7° 67.3° 49.8% 0.3 MPH 260.0w/m2